<?xml version="1.0" encoding="UTF-8" standalone="no" ?>
<gpx xmlns="http://www.topografix.com/GPX/1/1" xmlns:xsi="http://www.w3.org/2001/XMLSchema-instance" xsi:schemaLocation="http://www.topografix.com/GPX/1/1 http://www.topografix.com/GPX/1/1/gpx.xsd" version="1.1" creator="VisuGPX - https://www.visugpx.com">
  <metadata>
    <name>La Bernadiere - Le Pallet</name>
    <desc><![CDATA[Chemins de La Bernardière vers Le Pallet]]></desc>
  </metadata>
  <wpt lat="47.17501" lon="-1.37377">
    <ele>-49</ele>
  </wpt>
  <wpt lat="47.14866" lon="-1.33606">
    <ele>39</ele>
  </wpt>
  <trk>
    <name><![CDATA[La Bernadiere - Le Pallet_1]]></name>
    <trkseg>
      <trkpt lat="47.17501" lon="-1.37377">
        <ele>-49</ele>
        <time>2013-09-01T07:08:34Z</time>
      </trkpt>
      <trkpt lat="47.17468" lon="-1.37363">
        <ele>19</ele>
        <time>2013-09-01T07:08:35Z</time>
      </trkpt>
      <trkpt lat="47.17466" lon="-1.37379">
        <ele>9</ele>
        <time>2013-09-01T07:08:37Z</time>
      </trkpt>
      <trkpt lat="47.17461" lon="-1.37391">
        <ele>9</ele>
        <time>2013-09-01T07:08:41Z</time>
      </trkpt>
      <trkpt lat="47.17453" lon="-1.37401">
        <ele>9</ele>
        <time>2013-09-01T07:08:44Z</time>
      </trkpt>
      <trkpt lat="47.17443" lon="-1.37405">
        <ele>9</ele>
        <time>2013-09-01T07:08:47Z</time>
      </trkpt>
      <trkpt lat="47.17432" lon="-1.37406">
        <ele>9</ele>
        <time>2013-09-01T07:08:50Z</time>
      </trkpt>
      <trkpt lat="47.17422" lon="-1.3741">
        <ele>9</ele>
        <time>2013-09-01T07:08:55Z</time>
      </trkpt>
      <trkpt lat="47.17413" lon="-1.37414">
        <ele>9</ele>
        <time>2013-09-01T07:08:58Z</time>
      </trkpt>
      <trkpt lat="47.17402" lon="-1.3742">
        <ele>9</ele>
        <time>2013-09-01T07:09:01Z</time>
      </trkpt>
      <trkpt lat="47.1739" lon="-1.37422">
        <ele>9</ele>
        <time>2013-09-01T07:09:04Z</time>
      </trkpt>
      <trkpt lat="47.17379" lon="-1.37422">
        <ele>9</ele>
        <time>2013-09-01T07:09:07Z</time>
      </trkpt>
      <trkpt lat="47.17367" lon="-1.3742">
        <ele>9</ele>
        <time>2013-09-01T07:09:10Z</time>
      </trkpt>
      <trkpt lat="47.17356" lon="-1.37418">
        <ele>9</ele>
        <time>2013-09-01T07:09:13Z</time>
      </trkpt>
      <trkpt lat="47.17344" lon="-1.37417">
        <ele>9</ele>
        <time>2013-09-01T07:09:16Z</time>
      </trkpt>
      <trkpt lat="47.17332" lon="-1.37416">
        <ele>9</ele>
        <time>2013-09-01T07:09:19Z</time>
      </trkpt>
      <trkpt lat="47.17319" lon="-1.37414">
        <ele>9</ele>
        <time>2013-09-01T07:09:22Z</time>
      </trkpt>
      <trkpt lat="47.17309" lon="-1.37413">
        <ele>14</ele>
        <time>2013-09-01T07:09:24Z</time>
      </trkpt>
      <trkpt lat="47.17296" lon="-1.37412">
        <ele>14</ele>
        <time>2013-09-01T07:09:27Z</time>
      </trkpt>
      <trkpt lat="47.17283" lon="-1.37414">
        <ele>14</ele>
        <time>2013-09-01T07:09:30Z</time>
      </trkpt>
      <trkpt lat="47.17271" lon="-1.37416">
        <ele>14</ele>
        <time>2013-09-01T07:09:33Z</time>
      </trkpt>
      <trkpt lat="47.17258" lon="-1.37418">
        <ele>14</ele>
        <time>2013-09-01T07:09:36Z</time>
      </trkpt>
      <trkpt lat="47.17245" lon="-1.37419">
        <ele>14</ele>
        <time>2013-09-01T07:09:39Z</time>
      </trkpt>
      <trkpt lat="47.17233" lon="-1.3742">
        <ele>14</ele>
        <time>2013-09-01T07:09:42Z</time>
      </trkpt>
      <trkpt lat="47.17221" lon="-1.3742">
        <ele>14</ele>
        <time>2013-09-01T07:09:45Z</time>
      </trkpt>
      <trkpt lat="47.17208" lon="-1.37419">
        <ele>14</ele>
        <time>2013-09-01T07:09:48Z</time>
      </trkpt>
      <trkpt lat="47.17196" lon="-1.37419">
        <ele>14</ele>
        <time>2013-09-01T07:09:51Z</time>
      </trkpt>
      <trkpt lat="47.17185" lon="-1.37422">
        <ele>14</ele>
        <time>2013-09-01T07:09:54Z</time>
      </trkpt>
      <trkpt lat="47.17174" lon="-1.37423">
        <ele>14</ele>
        <time>2013-09-01T07:09:57Z</time>
      </trkpt>
      <trkpt lat="47.17165" lon="-1.37419">
        <ele>14</ele>
        <time>2013-09-01T07:10:02Z</time>
      </trkpt>
      <trkpt lat="47.17163" lon="-1.37405">
        <ele>14</ele>
        <time>2013-09-01T07:10:06Z</time>
      </trkpt>
      <trkpt lat="47.17162" lon="-1.37391">
        <ele>14</ele>
        <time>2013-09-01T07:10:09Z</time>
      </trkpt>
      <trkpt lat="47.17161" lon="-1.37376">
        <ele>14</ele>
        <time>2013-09-01T07:10:13Z</time>
      </trkpt>
      <trkpt lat="47.17161" lon="-1.37362">
        <ele>14</ele>
        <time>2013-09-01T07:10:16Z</time>
      </trkpt>
      <trkpt lat="47.1716" lon="-1.37346">
        <ele>14</ele>
        <time>2013-09-01T07:10:19Z</time>
      </trkpt>
      <trkpt lat="47.1716" lon="-1.37329">
        <ele>14</ele>
        <time>2013-09-01T07:10:22Z</time>
      </trkpt>
      <trkpt lat="47.17158" lon="-1.37313">
        <ele>14</ele>
        <time>2013-09-01T07:10:25Z</time>
      </trkpt>
      <trkpt lat="47.17152" lon="-1.373">
        <ele>14</ele>
        <time>2013-09-01T07:10:29Z</time>
      </trkpt>
      <trkpt lat="47.17141" lon="-1.37299">
        <ele>14</ele>
        <time>2013-09-01T07:10:33Z</time>
      </trkpt>
      <trkpt lat="47.1713" lon="-1.37295">
        <ele>14</ele>
        <time>2013-09-01T07:10:36Z</time>
      </trkpt>
      <trkpt lat="47.17118" lon="-1.3729">
        <ele>14</ele>
        <time>2013-09-01T07:10:39Z</time>
      </trkpt>
      <trkpt lat="47.17107" lon="-1.37286">
        <ele>14</ele>
        <time>2013-09-01T07:10:42Z</time>
      </trkpt>
      <trkpt lat="47.17095" lon="-1.37281">
        <ele>14</ele>
        <time>2013-09-01T07:10:45Z</time>
      </trkpt>
      <trkpt lat="47.17084" lon="-1.37277">
        <ele>14</ele>
        <time>2013-09-01T07:10:48Z</time>
      </trkpt>
      <trkpt lat="47.17073" lon="-1.37272">
        <ele>14</ele>
        <time>2013-09-01T07:10:51Z</time>
      </trkpt>
      <trkpt lat="47.17062" lon="-1.37263">
        <ele>14</ele>
        <time>2013-09-01T07:10:54Z</time>
      </trkpt>
      <trkpt lat="47.17053" lon="-1.37251">
        <ele>14</ele>
        <time>2013-09-01T07:10:57Z</time>
      </trkpt>
      <trkpt lat="47.17045" lon="-1.37245">
        <ele>14</ele>
        <time>2013-09-01T07:10:59Z</time>
      </trkpt>
      <trkpt lat="47.17034" lon="-1.37236">
        <ele>14</ele>
        <time>2013-09-01T07:11:02Z</time>
      </trkpt>
      <trkpt lat="47.17023" lon="-1.37228">
        <ele>14</ele>
        <time>2013-09-01T07:11:05Z</time>
      </trkpt>
      <trkpt lat="47.17013" lon="-1.3722">
        <ele>14</ele>
        <time>2013-09-01T07:11:08Z</time>
      </trkpt>
      <trkpt lat="47.17003" lon="-1.37211">
        <ele>14</ele>
        <time>2013-09-01T07:11:11Z</time>
      </trkpt>
      <trkpt lat="47.16992" lon="-1.37202">
        <ele>14</ele>
        <time>2013-09-01T07:11:14Z</time>
      </trkpt>
      <trkpt lat="47.16981" lon="-1.37195">
        <ele>14</ele>
        <time>2013-09-01T07:11:17Z</time>
      </trkpt>
      <trkpt lat="47.1697" lon="-1.37188">
        <ele>21</ele>
        <time>2013-09-01T07:11:20Z</time>
      </trkpt>
      <trkpt lat="47.1696" lon="-1.37181">
        <ele>21</ele>
        <time>2013-09-01T07:11:23Z</time>
      </trkpt>
      <trkpt lat="47.16951" lon="-1.37174">
        <ele>21</ele>
        <time>2013-09-01T07:11:26Z</time>
      </trkpt>
      <trkpt lat="47.16941" lon="-1.37166">
        <ele>21</ele>
        <time>2013-09-01T07:11:29Z</time>
      </trkpt>
      <trkpt lat="47.16932" lon="-1.37161">
        <ele>21</ele>
        <time>2013-09-01T07:11:32Z</time>
      </trkpt>
      <trkpt lat="47.16923" lon="-1.37157">
        <ele>21</ele>
        <time>2013-09-01T07:11:35Z</time>
      </trkpt>
      <trkpt lat="47.16916" lon="-1.37145">
        <ele>21</ele>
        <time>2013-09-01T07:11:39Z</time>
      </trkpt>
      <trkpt lat="47.16921" lon="-1.37132">
        <ele>21</ele>
        <time>2013-09-01T07:11:42Z</time>
      </trkpt>
      <trkpt lat="47.16929" lon="-1.37122">
        <ele>21</ele>
        <time>2013-09-01T07:11:45Z</time>
      </trkpt>
      <trkpt lat="47.16935" lon="-1.37108">
        <ele>21</ele>
        <time>2013-09-01T07:11:48Z</time>
      </trkpt>
      <trkpt lat="47.1694" lon="-1.37096">
        <ele>21</ele>
        <time>2013-09-01T07:11:51Z</time>
      </trkpt>
      <trkpt lat="47.16946" lon="-1.37085">
        <ele>21</ele>
        <time>2013-09-01T07:11:54Z</time>
      </trkpt>
      <trkpt lat="47.16954" lon="-1.37076">
        <ele>21</ele>
        <time>2013-09-01T07:11:57Z</time>
      </trkpt>
      <trkpt lat="47.16948" lon="-1.37061">
        <ele>15</ele>
        <time>2013-09-01T07:12:12Z</time>
      </trkpt>
      <trkpt lat="47.16938" lon="-1.37055">
        <ele>15</ele>
        <time>2013-09-01T07:12:15Z</time>
      </trkpt>
      <trkpt lat="47.1693" lon="-1.37052">
        <ele>15</ele>
        <time>2013-09-01T07:12:18Z</time>
      </trkpt>
      <trkpt lat="47.16918" lon="-1.37048">
        <ele>15</ele>
        <time>2013-09-01T07:12:21Z</time>
      </trkpt>
      <trkpt lat="47.16906" lon="-1.37043">
        <ele>21</ele>
        <time>2013-09-01T07:12:24Z</time>
      </trkpt>
      <trkpt lat="47.16896" lon="-1.37037">
        <ele>21</ele>
        <time>2013-09-01T07:12:27Z</time>
      </trkpt>
      <trkpt lat="47.16885" lon="-1.37034">
        <ele>21</ele>
        <time>2013-09-01T07:12:30Z</time>
      </trkpt>
      <trkpt lat="47.16875" lon="-1.37028">
        <ele>21</ele>
        <time>2013-09-01T07:12:33Z</time>
      </trkpt>
      <trkpt lat="47.16863" lon="-1.37024">
        <ele>21</ele>
        <time>2013-09-01T07:12:36Z</time>
      </trkpt>
      <trkpt lat="47.16853" lon="-1.37019">
        <ele>26</ele>
        <time>2013-09-01T07:12:39Z</time>
      </trkpt>
      <trkpt lat="47.16843" lon="-1.37016">
        <ele>26</ele>
        <time>2013-09-01T07:12:42Z</time>
      </trkpt>
      <trkpt lat="47.16832" lon="-1.37011">
        <ele>26</ele>
        <time>2013-09-01T07:12:45Z</time>
      </trkpt>
      <trkpt lat="47.16823" lon="-1.37006">
        <ele>26</ele>
        <time>2013-09-01T07:12:48Z</time>
      </trkpt>
      <trkpt lat="47.16814" lon="-1.37001">
        <ele>26</ele>
        <time>2013-09-01T07:12:51Z</time>
      </trkpt>
      <trkpt lat="47.16803" lon="-1.36995">
        <ele>18</ele>
        <time>2013-09-01T07:12:55Z</time>
      </trkpt>
      <trkpt lat="47.16793" lon="-1.3699">
        <ele>18</ele>
        <time>2013-09-01T07:12:58Z</time>
      </trkpt>
      <trkpt lat="47.16783" lon="-1.36985">
        <ele>18</ele>
        <time>2013-09-01T07:13:01Z</time>
      </trkpt>
      <trkpt lat="47.16772" lon="-1.36984">
        <ele>18</ele>
        <time>2013-09-01T07:13:04Z</time>
      </trkpt>
      <trkpt lat="47.16758" lon="-1.36986">
        <ele>18</ele>
        <time>2013-09-01T07:13:07Z</time>
      </trkpt>
      <trkpt lat="47.16748" lon="-1.36987">
        <ele>18</ele>
        <time>2013-09-01T07:13:10Z</time>
      </trkpt>
      <trkpt lat="47.16739" lon="-1.36987">
        <ele>18</ele>
        <time>2013-09-01T07:13:13Z</time>
      </trkpt>
      <trkpt lat="47.16728" lon="-1.36988">
        <ele>18</ele>
        <time>2013-09-01T07:13:16Z</time>
      </trkpt>
      <trkpt lat="47.16718" lon="-1.36989">
        <ele>18</ele>
        <time>2013-09-01T07:13:19Z</time>
      </trkpt>
      <trkpt lat="47.16709" lon="-1.36991">
        <ele>18</ele>
        <time>2013-09-01T07:13:22Z</time>
      </trkpt>
      <trkpt lat="47.16698" lon="-1.36992">
        <ele>18</ele>
        <time>2013-09-01T07:13:25Z</time>
      </trkpt>
      <trkpt lat="47.16688" lon="-1.36991">
        <ele>18</ele>
        <time>2013-09-01T07:13:28Z</time>
      </trkpt>
      <trkpt lat="47.16677" lon="-1.3699">
        <ele>18</ele>
        <time>2013-09-01T07:13:31Z</time>
      </trkpt>
      <trkpt lat="47.16668" lon="-1.36988">
        <ele>18</ele>
        <time>2013-09-01T07:13:34Z</time>
      </trkpt>
      <trkpt lat="47.16659" lon="-1.36985">
        <ele>18</ele>
        <time>2013-09-01T07:13:37Z</time>
      </trkpt>
      <trkpt lat="47.16647" lon="-1.36984">
        <ele>18</ele>
        <time>2013-09-01T07:13:39Z</time>
      </trkpt>
      <trkpt lat="47.16635" lon="-1.36981">
        <ele>18</ele>
        <time>2013-09-01T07:13:43Z</time>
      </trkpt>
      <trkpt lat="47.16627" lon="-1.36985">
        <ele>18</ele>
        <time>2013-09-01T07:13:47Z</time>
      </trkpt>
      <trkpt lat="47.1662" lon="-1.36999">
        <ele>18</ele>
        <time>2013-09-01T07:13:51Z</time>
      </trkpt>
      <trkpt lat="47.16614" lon="-1.37011">
        <ele>18</ele>
        <time>2013-09-01T07:13:54Z</time>
      </trkpt>
      <trkpt lat="47.16609" lon="-1.37023">
        <ele>18</ele>
        <time>2013-09-01T07:13:57Z</time>
      </trkpt>
      <trkpt lat="47.16603" lon="-1.37036">
        <ele>18</ele>
        <time>2013-09-01T07:14:01Z</time>
      </trkpt>
      <trkpt lat="47.16596" lon="-1.37048">
        <ele>18</ele>
        <time>2013-09-01T07:14:07Z</time>
      </trkpt>
      <trkpt lat="47.16599" lon="-1.37061">
        <ele>18</ele>
        <time>2013-09-01T07:14:13Z</time>
      </trkpt>
      <trkpt lat="47.16609" lon="-1.37072">
        <ele>18</ele>
        <time>2013-09-01T07:14:17Z</time>
      </trkpt>
      <trkpt lat="47.16617" lon="-1.37082">
        <ele>18</ele>
        <time>2013-09-01T07:14:21Z</time>
      </trkpt>
      <trkpt lat="47.16625" lon="-1.37091">
        <ele>18</ele>
        <time>2013-09-01T07:14:24Z</time>
      </trkpt>
      <trkpt lat="47.16632" lon="-1.37101">
        <ele>13</ele>
        <time>2013-09-01T07:14:27Z</time>
      </trkpt>
      <trkpt lat="47.16639" lon="-1.3711">
        <ele>13</ele>
        <time>2013-09-01T07:14:30Z</time>
      </trkpt>
      <trkpt lat="47.16647" lon="-1.37117">
        <ele>13</ele>
        <time>2013-09-01T07:14:33Z</time>
      </trkpt>
      <trkpt lat="47.16655" lon="-1.37128">
        <ele>13</ele>
        <time>2013-09-01T07:14:37Z</time>
      </trkpt>
      <trkpt lat="47.16665" lon="-1.3714">
        <ele>13</ele>
        <time>2013-09-01T07:14:41Z</time>
      </trkpt>
      <trkpt lat="47.16672" lon="-1.37148">
        <ele>13</ele>
        <time>2013-09-01T07:14:44Z</time>
      </trkpt>
      <trkpt lat="47.16679" lon="-1.37157">
        <ele>13</ele>
        <time>2013-09-01T07:14:47Z</time>
      </trkpt>
      <trkpt lat="47.16687" lon="-1.37165">
        <ele>13</ele>
        <time>2013-09-01T07:14:50Z</time>
      </trkpt>
      <trkpt lat="47.16693" lon="-1.37175">
        <ele>5</ele>
        <time>2013-09-01T07:15:06Z</time>
      </trkpt>
      <trkpt lat="47.16702" lon="-1.37177">
        <ele>13</ele>
        <time>2013-09-01T07:15:50Z</time>
      </trkpt>
      <trkpt lat="47.1671" lon="-1.37184">
        <ele>13</ele>
        <time>2013-09-01T07:15:56Z</time>
      </trkpt>
      <trkpt lat="47.16719" lon="-1.3719">
        <ele>13</ele>
        <time>2013-09-01T07:16:00Z</time>
      </trkpt>
      <trkpt lat="47.16728" lon="-1.37197">
        <ele>13</ele>
        <time>2013-09-01T07:16:04Z</time>
      </trkpt>
      <trkpt lat="47.16737" lon="-1.37202">
        <ele>13</ele>
        <time>2013-09-01T07:16:07Z</time>
      </trkpt>
      <trkpt lat="47.16745" lon="-1.37206">
        <ele>19</ele>
        <time>2013-09-01T07:16:10Z</time>
      </trkpt>
      <trkpt lat="47.16754" lon="-1.37213">
        <ele>19</ele>
        <time>2013-09-01T07:16:14Z</time>
      </trkpt>
      <trkpt lat="47.16763" lon="-1.3722">
        <ele>19</ele>
        <time>2013-09-01T07:16:18Z</time>
      </trkpt>
      <trkpt lat="47.16773" lon="-1.37227">
        <ele>19</ele>
        <time>2013-09-01T07:16:22Z</time>
      </trkpt>
      <trkpt lat="47.16782" lon="-1.37232">
        <ele>19</ele>
        <time>2013-09-01T07:16:25Z</time>
      </trkpt>
      <trkpt lat="47.16793" lon="-1.37238">
        <ele>19</ele>
        <time>2013-09-01T07:16:29Z</time>
      </trkpt>
      <trkpt lat="47.16801" lon="-1.37245">
        <ele>19</ele>
        <time>2013-09-01T07:16:32Z</time>
      </trkpt>
      <trkpt lat="47.16812" lon="-1.37252">
        <ele>19</ele>
        <time>2013-09-01T07:16:36Z</time>
      </trkpt>
      <trkpt lat="47.16821" lon="-1.3726">
        <ele>19</ele>
        <time>2013-09-01T07:16:40Z</time>
      </trkpt>
      <trkpt lat="47.16822" lon="-1.37274">
        <ele>19</ele>
        <time>2013-09-01T07:16:45Z</time>
      </trkpt>
      <trkpt lat="47.16812" lon="-1.37284">
        <ele>19</ele>
        <time>2013-09-01T07:16:49Z</time>
      </trkpt>
      <trkpt lat="47.16804" lon="-1.37293">
        <ele>19</ele>
        <time>2013-09-01T07:16:52Z</time>
      </trkpt>
      <trkpt lat="47.16796" lon="-1.37301">
        <ele>19</ele>
        <time>2013-09-01T07:16:55Z</time>
      </trkpt>
      <trkpt lat="47.16788" lon="-1.37309">
        <ele>19</ele>
        <time>2013-09-01T07:16:58Z</time>
      </trkpt>
      <trkpt lat="47.16779" lon="-1.37318">
        <ele>19</ele>
        <time>2013-09-01T07:17:01Z</time>
      </trkpt>
      <trkpt lat="47.16771" lon="-1.37327">
        <ele>19</ele>
        <time>2013-09-01T07:17:04Z</time>
      </trkpt>
      <trkpt lat="47.16763" lon="-1.37336">
        <ele>19</ele>
        <time>2013-09-01T07:17:07Z</time>
      </trkpt>
      <trkpt lat="47.16754" lon="-1.37344">
        <ele>19</ele>
        <time>2013-09-01T07:17:10Z</time>
      </trkpt>
      <trkpt lat="47.16745" lon="-1.37352">
        <ele>19</ele>
        <time>2013-09-01T07:17:13Z</time>
      </trkpt>
      <trkpt lat="47.16737" lon="-1.37361">
        <ele>19</ele>
        <time>2013-09-01T07:17:16Z</time>
      </trkpt>
      <trkpt lat="47.16729" lon="-1.3737">
        <ele>19</ele>
        <time>2013-09-01T07:17:19Z</time>
      </trkpt>
      <trkpt lat="47.16719" lon="-1.3738">
        <ele>19</ele>
        <time>2013-09-01T07:17:22Z</time>
      </trkpt>
      <trkpt lat="47.16709" lon="-1.37391">
        <ele>19</ele>
        <time>2013-09-01T07:17:25Z</time>
      </trkpt>
      <trkpt lat="47.16699" lon="-1.37402">
        <ele>19</ele>
        <time>2013-09-01T07:17:28Z</time>
      </trkpt>
      <trkpt lat="47.16692" lon="-1.3741">
        <ele>19</ele>
        <time>2013-09-01T07:17:30Z</time>
      </trkpt>
      <trkpt lat="47.16682" lon="-1.37418">
        <ele>19</ele>
        <time>2013-09-01T07:17:32Z</time>
      </trkpt>
      <trkpt lat="47.16674" lon="-1.37428">
        <ele>19</ele>
        <time>2013-09-01T07:17:34Z</time>
      </trkpt>
      <trkpt lat="47.16665" lon="-1.37438">
        <ele>19</ele>
        <time>2013-09-01T07:17:36Z</time>
      </trkpt>
      <trkpt lat="47.16654" lon="-1.37448">
        <ele>19</ele>
        <time>2013-09-01T07:17:38Z</time>
      </trkpt>
      <trkpt lat="47.16644" lon="-1.37459">
        <ele>19</ele>
        <time>2013-09-01T07:17:40Z</time>
      </trkpt>
      <trkpt lat="47.16633" lon="-1.3747">
        <ele>19</ele>
        <time>2013-09-01T07:17:42Z</time>
      </trkpt>
      <trkpt lat="47.16622" lon="-1.3748">
        <ele>19</ele>
        <time>2013-09-01T07:17:44Z</time>
      </trkpt>
      <trkpt lat="47.16611" lon="-1.37489">
        <ele>19</ele>
        <time>2013-09-01T07:17:46Z</time>
      </trkpt>
      <trkpt lat="47.16601" lon="-1.37497">
        <ele>19</ele>
        <time>2013-09-01T07:17:48Z</time>
      </trkpt>
      <trkpt lat="47.16592" lon="-1.37504">
        <ele>19</ele>
        <time>2013-09-01T07:17:50Z</time>
      </trkpt>
      <trkpt lat="47.16582" lon="-1.37512">
        <ele>19</ele>
        <time>2013-09-01T07:17:52Z</time>
      </trkpt>
      <trkpt lat="47.16574" lon="-1.37519">
        <ele>19</ele>
        <time>2013-09-01T07:17:54Z</time>
      </trkpt>
      <trkpt lat="47.16565" lon="-1.37526">
        <ele>19</ele>
        <time>2013-09-01T07:17:56Z</time>
      </trkpt>
      <trkpt lat="47.16557" lon="-1.37532">
        <ele>19</ele>
        <time>2013-09-01T07:17:58Z</time>
      </trkpt>
      <trkpt lat="47.16549" lon="-1.37539">
        <ele>19</ele>
        <time>2013-09-01T07:18:00Z</time>
      </trkpt>
      <trkpt lat="47.16541" lon="-1.37546">
        <ele>19</ele>
        <time>2013-09-01T07:18:02Z</time>
      </trkpt>
      <trkpt lat="47.16533" lon="-1.37555">
        <ele>19</ele>
        <time>2013-09-01T07:18:04Z</time>
      </trkpt>
      <trkpt lat="47.16527" lon="-1.37564">
        <ele>19</ele>
        <time>2013-09-01T07:18:06Z</time>
      </trkpt>
      <trkpt lat="47.16523" lon="-1.37577">
        <ele>19</ele>
        <time>2013-09-01T07:18:08Z</time>
      </trkpt>
      <trkpt lat="47.16521" lon="-1.37597">
        <ele>19</ele>
        <time>2013-09-01T07:18:11Z</time>
      </trkpt>
      <trkpt lat="47.16522" lon="-1.3761">
        <ele>19</ele>
        <time>2013-09-01T07:18:13Z</time>
      </trkpt>
      <trkpt lat="47.16524" lon="-1.3763">
        <ele>19</ele>
        <time>2013-09-01T07:18:16Z</time>
      </trkpt>
      <trkpt lat="47.16525" lon="-1.37649">
        <ele>19</ele>
        <time>2013-09-01T07:18:19Z</time>
      </trkpt>
      <trkpt lat="47.16524" lon="-1.37668">
        <ele>19</ele>
        <time>2013-09-01T07:18:22Z</time>
      </trkpt>
      <trkpt lat="47.16518" lon="-1.37684">
        <ele>19</ele>
        <time>2013-09-01T07:18:25Z</time>
      </trkpt>
      <trkpt lat="47.16508" lon="-1.37697">
        <ele>19</ele>
        <time>2013-09-01T07:18:28Z</time>
      </trkpt>
      <trkpt lat="47.16497" lon="-1.37706">
        <ele>19</ele>
        <time>2013-09-01T07:18:31Z</time>
      </trkpt>
      <trkpt lat="47.16486" lon="-1.37714">
        <ele>19</ele>
        <time>2013-09-01T07:18:34Z</time>
      </trkpt>
      <trkpt lat="47.16475" lon="-1.37723">
        <ele>19</ele>
        <time>2013-09-01T07:18:37Z</time>
      </trkpt>
      <trkpt lat="47.16464" lon="-1.37731">
        <ele>19</ele>
        <time>2013-09-01T07:18:40Z</time>
      </trkpt>
      <trkpt lat="47.16456" lon="-1.37737">
        <ele>19</ele>
        <time>2013-09-01T07:18:42Z</time>
      </trkpt>
      <trkpt lat="47.16445" lon="-1.37746">
        <ele>19</ele>
        <time>2013-09-01T07:18:45Z</time>
      </trkpt>
      <trkpt lat="47.16437" lon="-1.37752">
        <ele>19</ele>
        <time>2013-09-01T07:18:47Z</time>
      </trkpt>
      <trkpt lat="47.16427" lon="-1.37761">
        <ele>19</ele>
        <time>2013-09-01T07:18:50Z</time>
      </trkpt>
      <trkpt lat="47.16416" lon="-1.3777">
        <ele>19</ele>
        <time>2013-09-01T07:18:53Z</time>
      </trkpt>
      <trkpt lat="47.16406" lon="-1.3778">
        <ele>19</ele>
        <time>2013-09-01T07:18:56Z</time>
      </trkpt>
      <trkpt lat="47.16396" lon="-1.37791">
        <ele>19</ele>
        <time>2013-09-01T07:18:59Z</time>
      </trkpt>
      <trkpt lat="47.16386" lon="-1.37803">
        <ele>19</ele>
        <time>2013-09-01T07:19:02Z</time>
      </trkpt>
      <trkpt lat="47.16377" lon="-1.37815">
        <ele>19</ele>
        <time>2013-09-01T07:19:05Z</time>
      </trkpt>
      <trkpt lat="47.16368" lon="-1.37828">
        <ele>19</ele>
        <time>2013-09-01T07:19:08Z</time>
      </trkpt>
      <trkpt lat="47.16359" lon="-1.37841">
        <ele>19</ele>
        <time>2013-09-01T07:19:11Z</time>
      </trkpt>
      <trkpt lat="47.16351" lon="-1.37854">
        <ele>19</ele>
        <time>2013-09-01T07:19:14Z</time>
      </trkpt>
      <trkpt lat="47.16344" lon="-1.37867">
        <ele>19</ele>
        <time>2013-09-01T07:19:17Z</time>
      </trkpt>
      <trkpt lat="47.16336" lon="-1.37881">
        <ele>19</ele>
        <time>2013-09-01T07:19:20Z</time>
      </trkpt>
      <trkpt lat="47.16328" lon="-1.37894">
        <ele>19</ele>
        <time>2013-09-01T07:19:23Z</time>
      </trkpt>
      <trkpt lat="47.1632" lon="-1.37908">
        <ele>19</ele>
        <time>2013-09-01T07:19:26Z</time>
      </trkpt>
      <trkpt lat="47.16312" lon="-1.37921">
        <ele>19</ele>
        <time>2013-09-01T07:19:29Z</time>
      </trkpt>
      <trkpt lat="47.16305" lon="-1.37934">
        <ele>19</ele>
        <time>2013-09-01T07:19:32Z</time>
      </trkpt>
      <trkpt lat="47.16297" lon="-1.37946">
        <ele>19</ele>
        <time>2013-09-01T07:19:35Z</time>
      </trkpt>
      <trkpt lat="47.1629" lon="-1.3796">
        <ele>19</ele>
        <time>2013-09-01T07:19:38Z</time>
      </trkpt>
      <trkpt lat="47.16282" lon="-1.37973">
        <ele>19</ele>
        <time>2013-09-01T07:19:41Z</time>
      </trkpt>
      <trkpt lat="47.16274" lon="-1.37988">
        <ele>19</ele>
        <time>2013-09-01T07:19:44Z</time>
      </trkpt>
      <trkpt lat="47.16269" lon="-1.37998">
        <ele>19</ele>
        <time>2013-09-01T07:19:46Z</time>
      </trkpt>
      <trkpt lat="47.16261" lon="-1.38014">
        <ele>19</ele>
        <time>2013-09-01T07:19:49Z</time>
      </trkpt>
      <trkpt lat="47.16253" lon="-1.38028">
        <ele>19</ele>
        <time>2013-09-01T07:19:52Z</time>
      </trkpt>
      <trkpt lat="47.16245" lon="-1.38042">
        <ele>19</ele>
        <time>2013-09-01T07:19:55Z</time>
      </trkpt>
      <trkpt lat="47.16237" lon="-1.38057">
        <ele>19</ele>
        <time>2013-09-01T07:19:58Z</time>
      </trkpt>
      <trkpt lat="47.16228" lon="-1.38071">
        <ele>19</ele>
        <time>2013-09-01T07:20:01Z</time>
      </trkpt>
      <trkpt lat="47.16221" lon="-1.38085">
        <ele>19</ele>
        <time>2013-09-01T07:20:04Z</time>
      </trkpt>
      <trkpt lat="47.16212" lon="-1.38099">
        <ele>19</ele>
        <time>2013-09-01T07:20:07Z</time>
      </trkpt>
      <trkpt lat="47.16204" lon="-1.38112">
        <ele>19</ele>
        <time>2013-09-01T07:20:10Z</time>
      </trkpt>
      <trkpt lat="47.16196" lon="-1.38126">
        <ele>19</ele>
        <time>2013-09-01T07:20:13Z</time>
      </trkpt>
      <trkpt lat="47.16188" lon="-1.38139">
        <ele>19</ele>
        <time>2013-09-01T07:20:16Z</time>
      </trkpt>
      <trkpt lat="47.1618" lon="-1.38153">
        <ele>19</ele>
        <time>2013-09-01T07:20:19Z</time>
      </trkpt>
      <trkpt lat="47.16172" lon="-1.38167">
        <ele>19</ele>
        <time>2013-09-01T07:20:22Z</time>
      </trkpt>
      <trkpt lat="47.16165" lon="-1.38181">
        <ele>19</ele>
        <time>2013-09-01T07:20:25Z</time>
      </trkpt>
      <trkpt lat="47.16157" lon="-1.38192">
        <ele>19</ele>
        <time>2013-09-01T07:20:28Z</time>
      </trkpt>
      <trkpt lat="47.1615" lon="-1.38201">
        <ele>19</ele>
        <time>2013-09-01T07:20:32Z</time>
      </trkpt>
      <trkpt lat="47.1614" lon="-1.38204">
        <ele>19</ele>
        <time>2013-09-01T07:20:36Z</time>
      </trkpt>
      <trkpt lat="47.16136" lon="-1.38191">
        <ele>19</ele>
        <time>2013-09-01T07:20:39Z</time>
      </trkpt>
      <trkpt lat="47.16132" lon="-1.38174">
        <ele>19</ele>
        <time>2013-09-01T07:20:42Z</time>
      </trkpt>
      <trkpt lat="47.16128" lon="-1.38156">
        <ele>19</ele>
        <time>2013-09-01T07:20:45Z</time>
      </trkpt>
      <trkpt lat="47.16125" lon="-1.38144">
        <ele>19</ele>
        <time>2013-09-01T07:20:47Z</time>
      </trkpt>
      <trkpt lat="47.16121" lon="-1.38126">
        <ele>19</ele>
        <time>2013-09-01T07:20:50Z</time>
      </trkpt>
      <trkpt lat="47.16118" lon="-1.38113">
        <ele>19</ele>
        <time>2013-09-01T07:20:52Z</time>
      </trkpt>
      <trkpt lat="47.16114" lon="-1.38096">
        <ele>19</ele>
        <time>2013-09-01T07:20:55Z</time>
      </trkpt>
      <trkpt lat="47.16111" lon="-1.38084">
        <ele>19</ele>
        <time>2013-09-01T07:20:57Z</time>
      </trkpt>
      <trkpt lat="47.16108" lon="-1.38066">
        <ele>24</ele>
        <time>2013-09-01T07:21:00Z</time>
      </trkpt>
      <trkpt lat="47.16106" lon="-1.38053">
        <ele>24</ele>
        <time>2013-09-01T07:21:02Z</time>
      </trkpt>
      <trkpt lat="47.16102" lon="-1.38035">
        <ele>24</ele>
        <time>2013-09-01T07:21:05Z</time>
      </trkpt>
      <trkpt lat="47.16096" lon="-1.38017">
        <ele>24</ele>
        <time>2013-09-01T07:21:08Z</time>
      </trkpt>
      <trkpt lat="47.16091" lon="-1.38">
        <ele>24</ele>
        <time>2013-09-01T07:21:11Z</time>
      </trkpt>
      <trkpt lat="47.16087" lon="-1.37982">
        <ele>24</ele>
        <time>2013-09-01T07:21:14Z</time>
      </trkpt>
      <trkpt lat="47.16083" lon="-1.3797">
        <ele>24</ele>
        <time>2013-09-01T07:21:16Z</time>
      </trkpt>
      <trkpt lat="47.16079" lon="-1.37952">
        <ele>24</ele>
        <time>2013-09-01T07:21:19Z</time>
      </trkpt>
      <trkpt lat="47.16076" lon="-1.37939">
        <ele>24</ele>
        <time>2013-09-01T07:21:21Z</time>
      </trkpt>
      <trkpt lat="47.1607" lon="-1.37921">
        <ele>24</ele>
        <time>2013-09-01T07:21:24Z</time>
      </trkpt>
      <trkpt lat="47.16066" lon="-1.37904">
        <ele>24</ele>
        <time>2013-09-01T07:21:27Z</time>
      </trkpt>
      <trkpt lat="47.16062" lon="-1.37891">
        <ele>24</ele>
        <time>2013-09-01T07:21:29Z</time>
      </trkpt>
      <trkpt lat="47.16058" lon="-1.37874">
        <ele>24</ele>
        <time>2013-09-01T07:21:32Z</time>
      </trkpt>
      <trkpt lat="47.16053" lon="-1.37859">
        <ele>24</ele>
        <time>2013-09-01T07:21:35Z</time>
      </trkpt>
      <trkpt lat="47.16054" lon="-1.37845">
        <ele>24</ele>
        <time>2013-09-01T07:21:38Z</time>
      </trkpt>
      <trkpt lat="47.16061" lon="-1.37829">
        <ele>24</ele>
        <time>2013-09-01T07:21:41Z</time>
      </trkpt>
      <trkpt lat="47.16066" lon="-1.37817">
        <ele>24</ele>
        <time>2013-09-01T07:21:43Z</time>
      </trkpt>
      <trkpt lat="47.16069" lon="-1.37804">
        <ele>24</ele>
        <time>2013-09-01T07:21:45Z</time>
      </trkpt>
      <trkpt lat="47.16073" lon="-1.37792">
        <ele>24</ele>
        <time>2013-09-01T07:21:47Z</time>
      </trkpt>
      <trkpt lat="47.16077" lon="-1.37779">
        <ele>24</ele>
        <time>2013-09-01T07:21:49Z</time>
      </trkpt>
      <trkpt lat="47.16081" lon="-1.37767">
        <ele>24</ele>
        <time>2013-09-01T07:21:51Z</time>
      </trkpt>
      <trkpt lat="47.16084" lon="-1.37753">
        <ele>24</ele>
        <time>2013-09-01T07:21:53Z</time>
      </trkpt>
      <trkpt lat="47.16087" lon="-1.3774">
        <ele>24</ele>
        <time>2013-09-01T07:21:55Z</time>
      </trkpt>
      <trkpt lat="47.16091" lon="-1.37727">
        <ele>24</ele>
        <time>2013-09-01T07:21:57Z</time>
      </trkpt>
      <trkpt lat="47.16094" lon="-1.37714">
        <ele>24</ele>
        <time>2013-09-01T07:21:59Z</time>
      </trkpt>
      <trkpt lat="47.16098" lon="-1.37701">
        <ele>24</ele>
        <time>2013-09-01T07:22:01Z</time>
      </trkpt>
      <trkpt lat="47.16103" lon="-1.37683">
        <ele>24</ele>
        <time>2013-09-01T07:22:04Z</time>
      </trkpt>
      <trkpt lat="47.16107" lon="-1.3767">
        <ele>24</ele>
        <time>2013-09-01T07:22:06Z</time>
      </trkpt>
      <trkpt lat="47.16113" lon="-1.37652">
        <ele>24</ele>
        <time>2013-09-01T07:22:09Z</time>
      </trkpt>
      <trkpt lat="47.16116" lon="-1.3764">
        <ele>24</ele>
        <time>2013-09-01T07:22:11Z</time>
      </trkpt>
      <trkpt lat="47.1612" lon="-1.37626">
        <ele>24</ele>
        <time>2013-09-01T07:22:13Z</time>
      </trkpt>
      <trkpt lat="47.16124" lon="-1.37614">
        <ele>24</ele>
        <time>2013-09-01T07:22:15Z</time>
      </trkpt>
      <trkpt lat="47.16127" lon="-1.376">
        <ele>24</ele>
        <time>2013-09-01T07:22:17Z</time>
      </trkpt>
      <trkpt lat="47.1613" lon="-1.37587">
        <ele>24</ele>
        <time>2013-09-01T07:22:19Z</time>
      </trkpt>
      <trkpt lat="47.16134" lon="-1.37574">
        <ele>24</ele>
        <time>2013-09-01T07:22:21Z</time>
      </trkpt>
      <trkpt lat="47.16138" lon="-1.37556">
        <ele>24</ele>
        <time>2013-09-01T07:22:24Z</time>
      </trkpt>
      <trkpt lat="47.16141" lon="-1.37544">
        <ele>24</ele>
        <time>2013-09-01T07:22:26Z</time>
      </trkpt>
      <trkpt lat="47.16144" lon="-1.37531">
        <ele>24</ele>
        <time>2013-09-01T07:22:28Z</time>
      </trkpt>
      <trkpt lat="47.16147" lon="-1.37518">
        <ele>24</ele>
        <time>2013-09-01T07:22:30Z</time>
      </trkpt>
      <trkpt lat="47.16149" lon="-1.37501">
        <ele>24</ele>
        <time>2013-09-01T07:22:33Z</time>
      </trkpt>
      <trkpt lat="47.16149" lon="-1.37486">
        <ele>24</ele>
        <time>2013-09-01T07:22:36Z</time>
      </trkpt>
      <trkpt lat="47.16152" lon="-1.37473">
        <ele>24</ele>
        <time>2013-09-01T07:22:40Z</time>
      </trkpt>
      <trkpt lat="47.16151" lon="-1.37459">
        <ele>24</ele>
        <time>2013-09-01T07:22:47Z</time>
      </trkpt>
      <trkpt lat="47.16156" lon="-1.37449">
        <ele>14</ele>
        <time>2013-09-01T07:23:09Z</time>
      </trkpt>
      <trkpt lat="47.16154" lon="-1.37462">
        <ele>23</ele>
        <time>2013-09-01T07:23:25Z</time>
      </trkpt>
      <trkpt lat="47.16153" lon="-1.37476">
        <ele>23</ele>
        <time>2013-09-01T07:23:30Z</time>
      </trkpt>
      <trkpt lat="47.1615" lon="-1.37491">
        <ele>23</ele>
        <time>2013-09-01T07:23:34Z</time>
      </trkpt>
      <trkpt lat="47.16148" lon="-1.37505">
        <ele>23</ele>
        <time>2013-09-01T07:23:37Z</time>
      </trkpt>
      <trkpt lat="47.16146" lon="-1.3752">
        <ele>23</ele>
        <time>2013-09-01T07:23:40Z</time>
      </trkpt>
      <trkpt lat="47.16144" lon="-1.37533">
        <ele>23</ele>
        <time>2013-09-01T07:23:43Z</time>
      </trkpt>
      <trkpt lat="47.16141" lon="-1.37546">
        <ele>23</ele>
        <time>2013-09-01T07:23:46Z</time>
      </trkpt>
      <trkpt lat="47.16136" lon="-1.37563">
        <ele>23</ele>
        <time>2013-09-01T07:23:50Z</time>
      </trkpt>
      <trkpt lat="47.16133" lon="-1.37576">
        <ele>23</ele>
        <time>2013-09-01T07:23:53Z</time>
      </trkpt>
      <trkpt lat="47.1613" lon="-1.3759">
        <ele>23</ele>
        <time>2013-09-01T07:23:56Z</time>
      </trkpt>
      <trkpt lat="47.16127" lon="-1.37604">
        <ele>23</ele>
        <time>2013-09-01T07:23:59Z</time>
      </trkpt>
      <trkpt lat="47.16122" lon="-1.37619">
        <ele>23</ele>
        <time>2013-09-01T07:24:02Z</time>
      </trkpt>
      <trkpt lat="47.16118" lon="-1.37635">
        <ele>23</ele>
        <time>2013-09-01T07:24:05Z</time>
      </trkpt>
      <trkpt lat="47.16114" lon="-1.37651">
        <ele>23</ele>
        <time>2013-09-01T07:24:08Z</time>
      </trkpt>
      <trkpt lat="47.16108" lon="-1.37667">
        <ele>23</ele>
        <time>2013-09-01T07:24:11Z</time>
      </trkpt>
      <trkpt lat="47.16104" lon="-1.37683">
        <ele>23</ele>
        <time>2013-09-01T07:24:14Z</time>
      </trkpt>
      <trkpt lat="47.16099" lon="-1.377">
        <ele>23</ele>
        <time>2013-09-01T07:24:17Z</time>
      </trkpt>
      <trkpt lat="47.16095" lon="-1.37717">
        <ele>23</ele>
        <time>2013-09-01T07:24:20Z</time>
      </trkpt>
      <trkpt lat="47.1609" lon="-1.37734">
        <ele>23</ele>
        <time>2013-09-01T07:24:23Z</time>
      </trkpt>
      <trkpt lat="47.16084" lon="-1.3775">
        <ele>23</ele>
        <time>2013-09-01T07:24:26Z</time>
      </trkpt>
      <trkpt lat="47.16081" lon="-1.37763">
        <ele>23</ele>
        <time>2013-09-01T07:24:28Z</time>
      </trkpt>
      <trkpt lat="47.16077" lon="-1.3778">
        <ele>23</ele>
        <time>2013-09-01T07:24:31Z</time>
      </trkpt>
      <trkpt lat="47.16072" lon="-1.37797">
        <ele>23</ele>
        <time>2013-09-01T07:24:34Z</time>
      </trkpt>
      <trkpt lat="47.16068" lon="-1.37814">
        <ele>23</ele>
        <time>2013-09-01T07:24:37Z</time>
      </trkpt>
      <trkpt lat="47.16064" lon="-1.37829">
        <ele>23</ele>
        <time>2013-09-01T07:24:40Z</time>
      </trkpt>
      <trkpt lat="47.16055" lon="-1.37836">
        <ele>23</ele>
        <time>2013-09-01T07:24:43Z</time>
      </trkpt>
      <trkpt lat="47.16046" lon="-1.37832">
        <ele>23</ele>
        <time>2013-09-01T07:24:46Z</time>
      </trkpt>
      <trkpt lat="47.1604" lon="-1.3782">
        <ele>23</ele>
        <time>2013-09-01T07:24:49Z</time>
      </trkpt>
      <trkpt lat="47.16035" lon="-1.37806">
        <ele>23</ele>
        <time>2013-09-01T07:24:52Z</time>
      </trkpt>
      <trkpt lat="47.1603" lon="-1.37791">
        <ele>23</ele>
        <time>2013-09-01T07:24:55Z</time>
      </trkpt>
      <trkpt lat="47.16025" lon="-1.37776">
        <ele>23</ele>
        <time>2013-09-01T07:24:58Z</time>
      </trkpt>
      <trkpt lat="47.16019" lon="-1.37761">
        <ele>23</ele>
        <time>2013-09-01T07:25:01Z</time>
      </trkpt>
      <trkpt lat="47.16011" lon="-1.37746">
        <ele>23</ele>
        <time>2013-09-01T07:25:04Z</time>
      </trkpt>
      <trkpt lat="47.16006" lon="-1.37734">
        <ele>23</ele>
        <time>2013-09-01T07:25:06Z</time>
      </trkpt>
      <trkpt lat="47.15999" lon="-1.37718">
        <ele>23</ele>
        <time>2013-09-01T07:25:09Z</time>
      </trkpt>
      <trkpt lat="47.15993" lon="-1.37703">
        <ele>23</ele>
        <time>2013-09-01T07:25:12Z</time>
      </trkpt>
      <trkpt lat="47.15986" lon="-1.37688">
        <ele>23</ele>
        <time>2013-09-01T07:25:15Z</time>
      </trkpt>
      <trkpt lat="47.15981" lon="-1.37676">
        <ele>23</ele>
        <time>2013-09-01T07:25:17Z</time>
      </trkpt>
      <trkpt lat="47.15975" lon="-1.37659">
        <ele>23</ele>
        <time>2013-09-01T07:25:20Z</time>
      </trkpt>
      <trkpt lat="47.15972" lon="-1.37646">
        <ele>23</ele>
        <time>2013-09-01T07:25:22Z</time>
      </trkpt>
      <trkpt lat="47.15966" lon="-1.37628">
        <ele>23</ele>
        <time>2013-09-01T07:25:25Z</time>
      </trkpt>
      <trkpt lat="47.15961" lon="-1.37611">
        <ele>23</ele>
        <time>2013-09-01T07:25:28Z</time>
      </trkpt>
      <trkpt lat="47.15956" lon="-1.37594">
        <ele>23</ele>
        <time>2013-09-01T07:25:31Z</time>
      </trkpt>
      <trkpt lat="47.15951" lon="-1.37577">
        <ele>23</ele>
        <time>2013-09-01T07:25:34Z</time>
      </trkpt>
      <trkpt lat="47.15946" lon="-1.3756">
        <ele>23</ele>
        <time>2013-09-01T07:25:37Z</time>
      </trkpt>
      <trkpt lat="47.15939" lon="-1.37544">
        <ele>23</ele>
        <time>2013-09-01T07:25:40Z</time>
      </trkpt>
      <trkpt lat="47.15934" lon="-1.37528">
        <ele>23</ele>
        <time>2013-09-01T07:25:43Z</time>
      </trkpt>
      <trkpt lat="47.15929" lon="-1.3751">
        <ele>23</ele>
        <time>2013-09-01T07:25:46Z</time>
      </trkpt>
      <trkpt lat="47.15923" lon="-1.37493">
        <ele>23</ele>
        <time>2013-09-01T07:25:49Z</time>
      </trkpt>
      <trkpt lat="47.15916" lon="-1.37478">
        <ele>23</ele>
        <time>2013-09-01T07:25:52Z</time>
      </trkpt>
      <trkpt lat="47.15912" lon="-1.37462">
        <ele>23</ele>
        <time>2013-09-01T07:25:55Z</time>
      </trkpt>
      <trkpt lat="47.15907" lon="-1.37446">
        <ele>23</ele>
        <time>2013-09-01T07:25:58Z</time>
      </trkpt>
      <trkpt lat="47.15903" lon="-1.37429">
        <ele>23</ele>
        <time>2013-09-01T07:26:01Z</time>
      </trkpt>
      <trkpt lat="47.15899" lon="-1.37413">
        <ele>23</ele>
        <time>2013-09-01T07:26:04Z</time>
      </trkpt>
      <trkpt lat="47.15895" lon="-1.37396">
        <ele>23</ele>
        <time>2013-09-01T07:26:07Z</time>
      </trkpt>
      <trkpt lat="47.15891" lon="-1.37383">
        <ele>23</ele>
        <time>2013-09-01T07:26:09Z</time>
      </trkpt>
      <trkpt lat="47.15886" lon="-1.37365">
        <ele>23</ele>
        <time>2013-09-01T07:26:12Z</time>
      </trkpt>
      <trkpt lat="47.15884" lon="-1.37352">
        <ele>23</ele>
        <time>2013-09-01T07:26:14Z</time>
      </trkpt>
      <trkpt lat="47.15882" lon="-1.37339">
        <ele>23</ele>
        <time>2013-09-01T07:26:16Z</time>
      </trkpt>
      <trkpt lat="47.15879" lon="-1.37326">
        <ele>23</ele>
        <time>2013-09-01T07:26:18Z</time>
      </trkpt>
      <trkpt lat="47.15877" lon="-1.37314">
        <ele>23</ele>
        <time>2013-09-01T07:26:20Z</time>
      </trkpt>
      <trkpt lat="47.15873" lon="-1.373">
        <ele>23</ele>
        <time>2013-09-01T07:26:22Z</time>
      </trkpt>
      <trkpt lat="47.15871" lon="-1.37287">
        <ele>23</ele>
        <time>2013-09-01T07:26:24Z</time>
      </trkpt>
      <trkpt lat="47.15867" lon="-1.37273">
        <ele>23</ele>
        <time>2013-09-01T07:26:26Z</time>
      </trkpt>
      <trkpt lat="47.15864" lon="-1.37261">
        <ele>23</ele>
        <time>2013-09-01T07:26:28Z</time>
      </trkpt>
      <trkpt lat="47.15861" lon="-1.37247">
        <ele>23</ele>
        <time>2013-09-01T07:26:30Z</time>
      </trkpt>
      <trkpt lat="47.15858" lon="-1.37235">
        <ele>23</ele>
        <time>2013-09-01T07:26:32Z</time>
      </trkpt>
      <trkpt lat="47.15854" lon="-1.37221">
        <ele>23</ele>
        <time>2013-09-01T07:26:34Z</time>
      </trkpt>
      <trkpt lat="47.15852" lon="-1.37208">
        <ele>23</ele>
        <time>2013-09-01T07:26:36Z</time>
      </trkpt>
      <trkpt lat="47.15848" lon="-1.37194">
        <ele>23</ele>
        <time>2013-09-01T07:26:38Z</time>
      </trkpt>
      <trkpt lat="47.15845" lon="-1.37182">
        <ele>23</ele>
        <time>2013-09-01T07:26:40Z</time>
      </trkpt>
      <trkpt lat="47.1584" lon="-1.3717">
        <ele>23</ele>
        <time>2013-09-01T07:26:42Z</time>
      </trkpt>
      <trkpt lat="47.15835" lon="-1.37158">
        <ele>23</ele>
        <time>2013-09-01T07:26:44Z</time>
      </trkpt>
      <trkpt lat="47.15829" lon="-1.37149">
        <ele>23</ele>
        <time>2013-09-01T07:26:46Z</time>
      </trkpt>
      <trkpt lat="47.1582" lon="-1.37134">
        <ele>23</ele>
        <time>2013-09-01T07:26:49Z</time>
      </trkpt>
      <trkpt lat="47.1581" lon="-1.3712">
        <ele>23</ele>
        <time>2013-09-01T07:26:52Z</time>
      </trkpt>
      <trkpt lat="47.15802" lon="-1.37105">
        <ele>23</ele>
        <time>2013-09-01T07:26:55Z</time>
      </trkpt>
      <trkpt lat="47.15795" lon="-1.37089">
        <ele>23</ele>
        <time>2013-09-01T07:26:58Z</time>
      </trkpt>
      <trkpt lat="47.15788" lon="-1.37073">
        <ele>23</ele>
        <time>2013-09-01T07:27:01Z</time>
      </trkpt>
      <trkpt lat="47.15782" lon="-1.37057">
        <ele>23</ele>
        <time>2013-09-01T07:27:04Z</time>
      </trkpt>
      <trkpt lat="47.15779" lon="-1.37044">
        <ele>23</ele>
        <time>2013-09-01T07:27:06Z</time>
      </trkpt>
      <trkpt lat="47.15771" lon="-1.37028">
        <ele>23</ele>
        <time>2013-09-01T07:27:09Z</time>
      </trkpt>
      <trkpt lat="47.15763" lon="-1.37014">
        <ele>23</ele>
        <time>2013-09-01T07:27:12Z</time>
      </trkpt>
      <trkpt lat="47.15753" lon="-1.37001">
        <ele>23</ele>
        <time>2013-09-01T07:27:15Z</time>
      </trkpt>
      <trkpt lat="47.15743" lon="-1.3699">
        <ele>23</ele>
        <time>2013-09-01T07:27:18Z</time>
      </trkpt>
      <trkpt lat="47.15735" lon="-1.36982">
        <ele>23</ele>
        <time>2013-09-01T07:27:20Z</time>
      </trkpt>
      <trkpt lat="47.15724" lon="-1.36972">
        <ele>23</ele>
        <time>2013-09-01T07:27:23Z</time>
      </trkpt>
      <trkpt lat="47.15712" lon="-1.36962">
        <ele>23</ele>
        <time>2013-09-01T07:27:26Z</time>
      </trkpt>
      <trkpt lat="47.15701" lon="-1.36952">
        <ele>23</ele>
        <time>2013-09-01T07:27:29Z</time>
      </trkpt>
      <trkpt lat="47.15693" lon="-1.36945">
        <ele>29</ele>
        <time>2013-09-01T07:27:31Z</time>
      </trkpt>
      <trkpt lat="47.15682" lon="-1.36934">
        <ele>29</ele>
        <time>2013-09-01T07:27:34Z</time>
      </trkpt>
      <trkpt lat="47.15673" lon="-1.3692">
        <ele>29</ele>
        <time>2013-09-01T07:27:37Z</time>
      </trkpt>
      <trkpt lat="47.15665" lon="-1.36906">
        <ele>29</ele>
        <time>2013-09-01T07:27:40Z</time>
      </trkpt>
      <trkpt lat="47.15657" lon="-1.36892">
        <ele>29</ele>
        <time>2013-09-01T07:27:43Z</time>
      </trkpt>
      <trkpt lat="47.15649" lon="-1.36878">
        <ele>29</ele>
        <time>2013-09-01T07:27:46Z</time>
      </trkpt>
      <trkpt lat="47.15641" lon="-1.36865">
        <ele>29</ele>
        <time>2013-09-01T07:27:49Z</time>
      </trkpt>
      <trkpt lat="47.15633" lon="-1.36851">
        <ele>29</ele>
        <time>2013-09-01T07:27:52Z</time>
      </trkpt>
      <trkpt lat="47.15624" lon="-1.36838">
        <ele>29</ele>
        <time>2013-09-01T07:27:55Z</time>
      </trkpt>
      <trkpt lat="47.15616" lon="-1.36823">
        <ele>29</ele>
        <time>2013-09-01T07:27:58Z</time>
      </trkpt>
      <trkpt lat="47.15608" lon="-1.36809">
        <ele>29</ele>
        <time>2013-09-01T07:28:01Z</time>
      </trkpt>
      <trkpt lat="47.156" lon="-1.36795">
        <ele>29</ele>
        <time>2013-09-01T07:28:04Z</time>
      </trkpt>
      <trkpt lat="47.15594" lon="-1.3678">
        <ele>29</ele>
        <time>2013-09-01T07:28:07Z</time>
      </trkpt>
      <trkpt lat="47.15588" lon="-1.36765">
        <ele>29</ele>
        <time>2013-09-01T07:28:10Z</time>
      </trkpt>
      <trkpt lat="47.15584" lon="-1.36747">
        <ele>29</ele>
        <time>2013-09-01T07:28:13Z</time>
      </trkpt>
      <trkpt lat="47.15579" lon="-1.3673">
        <ele>29</ele>
        <time>2013-09-01T07:28:16Z</time>
      </trkpt>
      <trkpt lat="47.15576" lon="-1.36711">
        <ele>29</ele>
        <time>2013-09-01T07:28:19Z</time>
      </trkpt>
      <trkpt lat="47.15573" lon="-1.36698">
        <ele>29</ele>
        <time>2013-09-01T07:28:21Z</time>
      </trkpt>
      <trkpt lat="47.15571" lon="-1.36685">
        <ele>29</ele>
        <time>2013-09-01T07:28:23Z</time>
      </trkpt>
      <trkpt lat="47.15568" lon="-1.36667">
        <ele>29</ele>
        <time>2013-09-01T07:28:26Z</time>
      </trkpt>
      <trkpt lat="47.15565" lon="-1.36649">
        <ele>29</ele>
        <time>2013-09-01T07:28:29Z</time>
      </trkpt>
      <trkpt lat="47.15562" lon="-1.3663">
        <ele>29</ele>
        <time>2013-09-01T07:28:32Z</time>
      </trkpt>
      <trkpt lat="47.1556" lon="-1.36618">
        <ele>29</ele>
        <time>2013-09-01T07:28:34Z</time>
      </trkpt>
      <trkpt lat="47.15559" lon="-1.36604">
        <ele>29</ele>
        <time>2013-09-01T07:28:36Z</time>
      </trkpt>
      <trkpt lat="47.15557" lon="-1.36585">
        <ele>29</ele>
        <time>2013-09-01T07:28:39Z</time>
      </trkpt>
      <trkpt lat="47.15554" lon="-1.36568">
        <ele>29</ele>
        <time>2013-09-01T07:28:42Z</time>
      </trkpt>
      <trkpt lat="47.15549" lon="-1.36553">
        <ele>29</ele>
        <time>2013-09-01T07:28:45Z</time>
      </trkpt>
      <trkpt lat="47.15546" lon="-1.36539">
        <ele>29</ele>
        <time>2013-09-01T07:28:48Z</time>
      </trkpt>
      <trkpt lat="47.15539" lon="-1.36523">
        <ele>29</ele>
        <time>2013-09-01T07:28:52Z</time>
      </trkpt>
      <trkpt lat="47.1553" lon="-1.36512">
        <ele>29</ele>
        <time>2013-09-01T07:28:55Z</time>
      </trkpt>
      <trkpt lat="47.15521" lon="-1.36503">
        <ele>29</ele>
        <time>2013-09-01T07:28:58Z</time>
      </trkpt>
      <trkpt lat="47.15512" lon="-1.36491">
        <ele>34</ele>
        <time>2013-09-01T07:29:01Z</time>
      </trkpt>
      <trkpt lat="47.15504" lon="-1.36477">
        <ele>34</ele>
        <time>2013-09-01T07:29:04Z</time>
      </trkpt>
      <trkpt lat="47.155" lon="-1.36461">
        <ele>34</ele>
        <time>2013-09-01T07:29:07Z</time>
      </trkpt>
      <trkpt lat="47.15496" lon="-1.36445">
        <ele>34</ele>
        <time>2013-09-01T07:29:10Z</time>
      </trkpt>
      <trkpt lat="47.15492" lon="-1.36429">
        <ele>34</ele>
        <time>2013-09-01T07:29:13Z</time>
      </trkpt>
      <trkpt lat="47.15492" lon="-1.3641">
        <ele>34</ele>
        <time>2013-09-01T07:29:16Z</time>
      </trkpt>
      <trkpt lat="47.15491" lon="-1.36393">
        <ele>34</ele>
        <time>2013-09-01T07:29:19Z</time>
      </trkpt>
      <trkpt lat="47.15491" lon="-1.36374">
        <ele>34</ele>
        <time>2013-09-01T07:29:22Z</time>
      </trkpt>
      <trkpt lat="47.15489" lon="-1.36356">
        <ele>34</ele>
        <time>2013-09-01T07:29:25Z</time>
      </trkpt>
      <trkpt lat="47.15489" lon="-1.36337">
        <ele>34</ele>
        <time>2013-09-01T07:29:28Z</time>
      </trkpt>
      <trkpt lat="47.15489" lon="-1.36318">
        <ele>34</ele>
        <time>2013-09-01T07:29:31Z</time>
      </trkpt>
      <trkpt lat="47.15487" lon="-1.363">
        <ele>34</ele>
        <time>2013-09-01T07:29:34Z</time>
      </trkpt>
      <trkpt lat="47.15484" lon="-1.36281">
        <ele>34</ele>
        <time>2013-09-01T07:29:37Z</time>
      </trkpt>
      <trkpt lat="47.15482" lon="-1.36267">
        <ele>34</ele>
        <time>2013-09-01T07:29:39Z</time>
      </trkpt>
      <trkpt lat="47.15478" lon="-1.36249">
        <ele>34</ele>
        <time>2013-09-01T07:29:42Z</time>
      </trkpt>
      <trkpt lat="47.15475" lon="-1.3623">
        <ele>34</ele>
        <time>2013-09-01T07:29:45Z</time>
      </trkpt>
      <trkpt lat="47.15473" lon="-1.36217">
        <ele>34</ele>
        <time>2013-09-01T07:29:47Z</time>
      </trkpt>
      <trkpt lat="47.15472" lon="-1.36204">
        <ele>34</ele>
        <time>2013-09-01T07:29:49Z</time>
      </trkpt>
      <trkpt lat="47.1547" lon="-1.36189">
        <ele>34</ele>
        <time>2013-09-01T07:29:51Z</time>
      </trkpt>
      <trkpt lat="47.15469" lon="-1.36176">
        <ele>34</ele>
        <time>2013-09-01T07:29:53Z</time>
      </trkpt>
      <trkpt lat="47.15466" lon="-1.36162">
        <ele>34</ele>
        <time>2013-09-01T07:29:55Z</time>
      </trkpt>
      <trkpt lat="47.15464" lon="-1.36148">
        <ele>34</ele>
        <time>2013-09-01T07:29:57Z</time>
      </trkpt>
      <trkpt lat="47.15462" lon="-1.36133">
        <ele>34</ele>
        <time>2013-09-01T07:29:59Z</time>
      </trkpt>
      <trkpt lat="47.15459" lon="-1.36118">
        <ele>34</ele>
        <time>2013-09-01T07:30:01Z</time>
      </trkpt>
      <trkpt lat="47.15455" lon="-1.36104">
        <ele>34</ele>
        <time>2013-09-01T07:30:03Z</time>
      </trkpt>
      <trkpt lat="47.15452" lon="-1.36089">
        <ele>34</ele>
        <time>2013-09-01T07:30:05Z</time>
      </trkpt>
      <trkpt lat="47.15449" lon="-1.36073">
        <ele>34</ele>
        <time>2013-09-01T07:30:07Z</time>
      </trkpt>
      <trkpt lat="47.15446" lon="-1.36059">
        <ele>34</ele>
        <time>2013-09-01T07:30:09Z</time>
      </trkpt>
      <trkpt lat="47.15442" lon="-1.36045">
        <ele>34</ele>
        <time>2013-09-01T07:30:11Z</time>
      </trkpt>
      <trkpt lat="47.15439" lon="-1.36032">
        <ele>34</ele>
        <time>2013-09-01T07:30:13Z</time>
      </trkpt>
      <trkpt lat="47.15435" lon="-1.36018">
        <ele>34</ele>
        <time>2013-09-01T07:30:15Z</time>
      </trkpt>
      <trkpt lat="47.15432" lon="-1.36004">
        <ele>34</ele>
        <time>2013-09-01T07:30:17Z</time>
      </trkpt>
      <trkpt lat="47.15429" lon="-1.3599">
        <ele>34</ele>
        <time>2013-09-01T07:30:19Z</time>
      </trkpt>
      <trkpt lat="47.15426" lon="-1.35976">
        <ele>34</ele>
        <time>2013-09-01T07:30:21Z</time>
      </trkpt>
      <trkpt lat="47.15423" lon="-1.35963">
        <ele>34</ele>
        <time>2013-09-01T07:30:23Z</time>
      </trkpt>
      <trkpt lat="47.1542" lon="-1.35949">
        <ele>34</ele>
        <time>2013-09-01T07:30:25Z</time>
      </trkpt>
      <trkpt lat="47.15416" lon="-1.35936">
        <ele>34</ele>
        <time>2013-09-01T07:30:27Z</time>
      </trkpt>
      <trkpt lat="47.15413" lon="-1.35921">
        <ele>34</ele>
        <time>2013-09-01T07:30:29Z</time>
      </trkpt>
      <trkpt lat="47.1541" lon="-1.35907">
        <ele>34</ele>
        <time>2013-09-01T07:30:31Z</time>
      </trkpt>
      <trkpt lat="47.15407" lon="-1.35893">
        <ele>34</ele>
        <time>2013-09-01T07:30:33Z</time>
      </trkpt>
      <trkpt lat="47.15402" lon="-1.35879">
        <ele>34</ele>
        <time>2013-09-01T07:30:35Z</time>
      </trkpt>
      <trkpt lat="47.15397" lon="-1.35866">
        <ele>34</ele>
        <time>2013-09-01T07:30:37Z</time>
      </trkpt>
      <trkpt lat="47.15392" lon="-1.35853">
        <ele>34</ele>
        <time>2013-09-01T07:30:39Z</time>
      </trkpt>
      <trkpt lat="47.15386" lon="-1.35841">
        <ele>34</ele>
        <time>2013-09-01T07:30:41Z</time>
      </trkpt>
      <trkpt lat="47.1538" lon="-1.35829">
        <ele>34</ele>
        <time>2013-09-01T07:30:43Z</time>
      </trkpt>
      <trkpt lat="47.15374" lon="-1.35817">
        <ele>34</ele>
        <time>2013-09-01T07:30:45Z</time>
      </trkpt>
      <trkpt lat="47.15367" lon="-1.35806">
        <ele>34</ele>
        <time>2013-09-01T07:30:47Z</time>
      </trkpt>
      <trkpt lat="47.15359" lon="-1.35797">
        <ele>34</ele>
        <time>2013-09-01T07:30:49Z</time>
      </trkpt>
      <trkpt lat="47.15351" lon="-1.35787">
        <ele>34</ele>
        <time>2013-09-01T07:30:51Z</time>
      </trkpt>
      <trkpt lat="47.15344" lon="-1.35777">
        <ele>34</ele>
        <time>2013-09-01T07:30:53Z</time>
      </trkpt>
      <trkpt lat="47.15337" lon="-1.35766">
        <ele>34</ele>
        <time>2013-09-01T07:30:55Z</time>
      </trkpt>
      <trkpt lat="47.15332" lon="-1.35754">
        <ele>34</ele>
        <time>2013-09-01T07:30:57Z</time>
      </trkpt>
      <trkpt lat="47.15328" lon="-1.35741">
        <ele>34</ele>
        <time>2013-09-01T07:30:59Z</time>
      </trkpt>
      <trkpt lat="47.15324" lon="-1.35727">
        <ele>34</ele>
        <time>2013-09-01T07:31:01Z</time>
      </trkpt>
      <trkpt lat="47.15323" lon="-1.35713">
        <ele>34</ele>
        <time>2013-09-01T07:31:03Z</time>
      </trkpt>
      <trkpt lat="47.15325" lon="-1.35699">
        <ele>34</ele>
        <time>2013-09-01T07:31:05Z</time>
      </trkpt>
      <trkpt lat="47.15328" lon="-1.35685">
        <ele>34</ele>
        <time>2013-09-01T07:31:07Z</time>
      </trkpt>
      <trkpt lat="47.15333" lon="-1.35674">
        <ele>34</ele>
        <time>2013-09-01T07:31:09Z</time>
      </trkpt>
      <trkpt lat="47.1534" lon="-1.35657">
        <ele>34</ele>
        <time>2013-09-01T07:31:12Z</time>
      </trkpt>
      <trkpt lat="47.15346" lon="-1.35647">
        <ele>34</ele>
        <time>2013-09-01T07:31:14Z</time>
      </trkpt>
      <trkpt lat="47.15351" lon="-1.35636">
        <ele>34</ele>
        <time>2013-09-01T07:31:16Z</time>
      </trkpt>
      <trkpt lat="47.15358" lon="-1.35625">
        <ele>34</ele>
        <time>2013-09-01T07:31:18Z</time>
      </trkpt>
      <trkpt lat="47.15364" lon="-1.35614">
        <ele>34</ele>
        <time>2013-09-01T07:31:20Z</time>
      </trkpt>
      <trkpt lat="47.15369" lon="-1.35603">
        <ele>34</ele>
        <time>2013-09-01T07:31:22Z</time>
      </trkpt>
      <trkpt lat="47.15375" lon="-1.35591">
        <ele>34</ele>
        <time>2013-09-01T07:31:24Z</time>
      </trkpt>
      <trkpt lat="47.15382" lon="-1.3558">
        <ele>34</ele>
        <time>2013-09-01T07:31:26Z</time>
      </trkpt>
      <trkpt lat="47.15388" lon="-1.35568">
        <ele>34</ele>
        <time>2013-09-01T07:31:28Z</time>
      </trkpt>
      <trkpt lat="47.15393" lon="-1.35557">
        <ele>34</ele>
        <time>2013-09-01T07:31:30Z</time>
      </trkpt>
      <trkpt lat="47.15399" lon="-1.35544">
        <ele>34</ele>
        <time>2013-09-01T07:31:32Z</time>
      </trkpt>
      <trkpt lat="47.15404" lon="-1.35532">
        <ele>34</ele>
        <time>2013-09-01T07:31:34Z</time>
      </trkpt>
      <trkpt lat="47.15407" lon="-1.35519">
        <ele>34</ele>
        <time>2013-09-01T07:31:36Z</time>
      </trkpt>
      <trkpt lat="47.15411" lon="-1.35506">
        <ele>34</ele>
        <time>2013-09-01T07:31:38Z</time>
      </trkpt>
      <trkpt lat="47.15414" lon="-1.35491">
        <ele>34</ele>
        <time>2013-09-01T07:31:40Z</time>
      </trkpt>
      <trkpt lat="47.15417" lon="-1.35478">
        <ele>34</ele>
        <time>2013-09-01T07:31:42Z</time>
      </trkpt>
      <trkpt lat="47.1542" lon="-1.35464">
        <ele>34</ele>
        <time>2013-09-01T07:31:44Z</time>
      </trkpt>
      <trkpt lat="47.15424" lon="-1.35452">
        <ele>34</ele>
        <time>2013-09-01T07:31:46Z</time>
      </trkpt>
      <trkpt lat="47.15429" lon="-1.35438">
        <ele>34</ele>
        <time>2013-09-01T07:31:48Z</time>
      </trkpt>
      <trkpt lat="47.15433" lon="-1.35426">
        <ele>34</ele>
        <time>2013-09-01T07:31:50Z</time>
      </trkpt>
      <trkpt lat="47.15438" lon="-1.35413">
        <ele>34</ele>
        <time>2013-09-01T07:31:52Z</time>
      </trkpt>
      <trkpt lat="47.15442" lon="-1.354">
        <ele>34</ele>
        <time>2013-09-01T07:31:54Z</time>
      </trkpt>
      <trkpt lat="47.15447" lon="-1.35389">
        <ele>34</ele>
        <time>2013-09-01T07:31:56Z</time>
      </trkpt>
      <trkpt lat="47.15451" lon="-1.35377">
        <ele>34</ele>
        <time>2013-09-01T07:31:58Z</time>
      </trkpt>
      <trkpt lat="47.15456" lon="-1.35365">
        <ele>34</ele>
        <time>2013-09-01T07:32:00Z</time>
      </trkpt>
      <trkpt lat="47.1546" lon="-1.35354">
        <ele>34</ele>
        <time>2013-09-01T07:32:02Z</time>
      </trkpt>
      <trkpt lat="47.15464" lon="-1.35342">
        <ele>34</ele>
        <time>2013-09-01T07:32:04Z</time>
      </trkpt>
      <trkpt lat="47.1547" lon="-1.35325">
        <ele>34</ele>
        <time>2013-09-01T07:32:07Z</time>
      </trkpt>
      <trkpt lat="47.1547" lon="-1.35306">
        <ele>34</ele>
        <time>2013-09-01T07:32:10Z</time>
      </trkpt>
      <trkpt lat="47.15462" lon="-1.35291">
        <ele>34</ele>
        <time>2013-09-01T07:32:13Z</time>
      </trkpt>
      <trkpt lat="47.15454" lon="-1.35284">
        <ele>34</ele>
        <time>2013-09-01T07:32:15Z</time>
      </trkpt>
      <trkpt lat="47.15445" lon="-1.35278">
        <ele>34</ele>
        <time>2013-09-01T07:32:17Z</time>
      </trkpt>
      <trkpt lat="47.15437" lon="-1.35273">
        <ele>34</ele>
        <time>2013-09-01T07:32:19Z</time>
      </trkpt>
      <trkpt lat="47.15427" lon="-1.35267">
        <ele>34</ele>
        <time>2013-09-01T07:32:21Z</time>
      </trkpt>
      <trkpt lat="47.15418" lon="-1.3526">
        <ele>34</ele>
        <time>2013-09-01T07:32:23Z</time>
      </trkpt>
      <trkpt lat="47.1541" lon="-1.35254">
        <ele>34</ele>
        <time>2013-09-01T07:32:25Z</time>
      </trkpt>
      <trkpt lat="47.15401" lon="-1.35249">
        <ele>34</ele>
        <time>2013-09-01T07:32:27Z</time>
      </trkpt>
      <trkpt lat="47.15391" lon="-1.35242">
        <ele>34</ele>
        <time>2013-09-01T07:32:29Z</time>
      </trkpt>
      <trkpt lat="47.15383" lon="-1.35236">
        <ele>34</ele>
        <time>2013-09-01T07:32:31Z</time>
      </trkpt>
      <trkpt lat="47.15374" lon="-1.35231">
        <ele>34</ele>
        <time>2013-09-01T07:32:33Z</time>
      </trkpt>
      <trkpt lat="47.15365" lon="-1.35224">
        <ele>34</ele>
        <time>2013-09-01T07:32:35Z</time>
      </trkpt>
      <trkpt lat="47.15356" lon="-1.35219">
        <ele>34</ele>
        <time>2013-09-01T07:32:37Z</time>
      </trkpt>
      <trkpt lat="47.15347" lon="-1.35213">
        <ele>34</ele>
        <time>2013-09-01T07:32:39Z</time>
      </trkpt>
      <trkpt lat="47.15337" lon="-1.35206">
        <ele>34</ele>
        <time>2013-09-01T07:32:41Z</time>
      </trkpt>
      <trkpt lat="47.15329" lon="-1.352">
        <ele>34</ele>
        <time>2013-09-01T07:32:43Z</time>
      </trkpt>
      <trkpt lat="47.15321" lon="-1.35191">
        <ele>34</ele>
        <time>2013-09-01T07:32:45Z</time>
      </trkpt>
      <trkpt lat="47.15314" lon="-1.35181">
        <ele>34</ele>
        <time>2013-09-01T07:32:47Z</time>
      </trkpt>
      <trkpt lat="47.15308" lon="-1.3517">
        <ele>34</ele>
        <time>2013-09-01T07:32:49Z</time>
      </trkpt>
      <trkpt lat="47.15302" lon="-1.35159">
        <ele>34</ele>
        <time>2013-09-01T07:32:51Z</time>
      </trkpt>
      <trkpt lat="47.15296" lon="-1.35147">
        <ele>34</ele>
        <time>2013-09-01T07:32:53Z</time>
      </trkpt>
      <trkpt lat="47.1529" lon="-1.35135">
        <ele>34</ele>
        <time>2013-09-01T07:32:55Z</time>
      </trkpt>
      <trkpt lat="47.15284" lon="-1.35123">
        <ele>34</ele>
        <time>2013-09-01T07:32:57Z</time>
      </trkpt>
      <trkpt lat="47.15279" lon="-1.3511">
        <ele>34</ele>
        <time>2013-09-01T07:32:59Z</time>
      </trkpt>
      <trkpt lat="47.15272" lon="-1.35099">
        <ele>34</ele>
        <time>2013-09-01T07:33:01Z</time>
      </trkpt>
      <trkpt lat="47.15266" lon="-1.35086">
        <ele>34</ele>
        <time>2013-09-01T07:33:03Z</time>
      </trkpt>
      <trkpt lat="47.15261" lon="-1.35074">
        <ele>34</ele>
        <time>2013-09-01T07:33:05Z</time>
      </trkpt>
      <trkpt lat="47.15254" lon="-1.35063">
        <ele>34</ele>
        <time>2013-09-01T07:33:07Z</time>
      </trkpt>
      <trkpt lat="47.15247" lon="-1.35052">
        <ele>34</ele>
        <time>2013-09-01T07:33:09Z</time>
      </trkpt>
      <trkpt lat="47.15239" lon="-1.35042">
        <ele>34</ele>
        <time>2013-09-01T07:33:11Z</time>
      </trkpt>
      <trkpt lat="47.1523" lon="-1.35033">
        <ele>34</ele>
        <time>2013-09-01T07:33:13Z</time>
      </trkpt>
      <trkpt lat="47.1522" lon="-1.35025">
        <ele>34</ele>
        <time>2013-09-01T07:33:15Z</time>
      </trkpt>
      <trkpt lat="47.15211" lon="-1.35016">
        <ele>34</ele>
        <time>2013-09-01T07:33:17Z</time>
      </trkpt>
      <trkpt lat="47.15201" lon="-1.35007">
        <ele>34</ele>
        <time>2013-09-01T07:33:19Z</time>
      </trkpt>
      <trkpt lat="47.15192" lon="-1.34996">
        <ele>34</ele>
        <time>2013-09-01T07:33:21Z</time>
      </trkpt>
      <trkpt lat="47.15183" lon="-1.34985">
        <ele>34</ele>
        <time>2013-09-01T07:33:23Z</time>
      </trkpt>
      <trkpt lat="47.15175" lon="-1.34973">
        <ele>34</ele>
        <time>2013-09-01T07:33:25Z</time>
      </trkpt>
      <trkpt lat="47.15168" lon="-1.3496">
        <ele>34</ele>
        <time>2013-09-01T07:33:27Z</time>
      </trkpt>
      <trkpt lat="47.1516" lon="-1.34947">
        <ele>34</ele>
        <time>2013-09-01T07:33:29Z</time>
      </trkpt>
      <trkpt lat="47.15152" lon="-1.34934">
        <ele>34</ele>
        <time>2013-09-01T07:33:31Z</time>
      </trkpt>
      <trkpt lat="47.15145" lon="-1.34922">
        <ele>34</ele>
        <time>2013-09-01T07:33:33Z</time>
      </trkpt>
      <trkpt lat="47.15138" lon="-1.34909">
        <ele>34</ele>
        <time>2013-09-01T07:33:35Z</time>
      </trkpt>
      <trkpt lat="47.15131" lon="-1.34897">
        <ele>34</ele>
        <time>2013-09-01T07:33:37Z</time>
      </trkpt>
      <trkpt lat="47.15124" lon="-1.34885">
        <ele>34</ele>
        <time>2013-09-01T07:33:39Z</time>
      </trkpt>
      <trkpt lat="47.15117" lon="-1.34874">
        <ele>34</ele>
        <time>2013-09-01T07:33:41Z</time>
      </trkpt>
      <trkpt lat="47.15111" lon="-1.34863">
        <ele>34</ele>
        <time>2013-09-01T07:33:43Z</time>
      </trkpt>
      <trkpt lat="47.15104" lon="-1.34852">
        <ele>34</ele>
        <time>2013-09-01T07:33:45Z</time>
      </trkpt>
      <trkpt lat="47.15098" lon="-1.34842">
        <ele>34</ele>
        <time>2013-09-01T07:33:47Z</time>
      </trkpt>
      <trkpt lat="47.15091" lon="-1.34831">
        <ele>34</ele>
        <time>2013-09-01T07:33:49Z</time>
      </trkpt>
      <trkpt lat="47.15083" lon="-1.34817">
        <ele>34</ele>
        <time>2013-09-01T07:33:52Z</time>
      </trkpt>
      <trkpt lat="47.15075" lon="-1.34803">
        <ele>34</ele>
        <time>2013-09-01T07:33:55Z</time>
      </trkpt>
      <trkpt lat="47.15071" lon="-1.34791">
        <ele>34</ele>
        <time>2013-09-01T07:33:59Z</time>
      </trkpt>
      <trkpt lat="47.15067" lon="-1.34776">
        <ele>34</ele>
        <time>2013-09-01T07:34:03Z</time>
      </trkpt>
      <trkpt lat="47.15065" lon="-1.34758">
        <ele>34</ele>
        <time>2013-09-01T07:34:06Z</time>
      </trkpt>
      <trkpt lat="47.15065" lon="-1.34739">
        <ele>34</ele>
        <time>2013-09-01T07:34:09Z</time>
      </trkpt>
      <trkpt lat="47.15064" lon="-1.34726">
        <ele>34</ele>
        <time>2013-09-01T07:34:11Z</time>
      </trkpt>
      <trkpt lat="47.15063" lon="-1.34706">
        <ele>34</ele>
        <time>2013-09-01T07:34:14Z</time>
      </trkpt>
      <trkpt lat="47.15062" lon="-1.34687">
        <ele>34</ele>
        <time>2013-09-01T07:34:17Z</time>
      </trkpt>
      <trkpt lat="47.1506" lon="-1.34674">
        <ele>34</ele>
        <time>2013-09-01T07:34:19Z</time>
      </trkpt>
      <trkpt lat="47.1506" lon="-1.3466">
        <ele>34</ele>
        <time>2013-09-01T07:34:21Z</time>
      </trkpt>
      <trkpt lat="47.1506" lon="-1.34647">
        <ele>34</ele>
        <time>2013-09-01T07:34:23Z</time>
      </trkpt>
      <trkpt lat="47.1506" lon="-1.34628">
        <ele>34</ele>
        <time>2013-09-01T07:34:26Z</time>
      </trkpt>
      <trkpt lat="47.15059" lon="-1.3461">
        <ele>34</ele>
        <time>2013-09-01T07:34:29Z</time>
      </trkpt>
      <trkpt lat="47.15059" lon="-1.34593">
        <ele>34</ele>
        <time>2013-09-01T07:34:32Z</time>
      </trkpt>
      <trkpt lat="47.15058" lon="-1.34575">
        <ele>34</ele>
        <time>2013-09-01T07:34:35Z</time>
      </trkpt>
      <trkpt lat="47.15059" lon="-1.34557">
        <ele>34</ele>
        <time>2013-09-01T07:34:38Z</time>
      </trkpt>
      <trkpt lat="47.15061" lon="-1.3454">
        <ele>34</ele>
        <time>2013-09-01T07:34:41Z</time>
      </trkpt>
      <trkpt lat="47.15067" lon="-1.34524">
        <ele>34</ele>
        <time>2013-09-01T07:34:44Z</time>
      </trkpt>
      <trkpt lat="47.15071" lon="-1.34512">
        <ele>34</ele>
        <time>2013-09-01T07:34:46Z</time>
      </trkpt>
      <trkpt lat="47.15078" lon="-1.34496">
        <ele>34</ele>
        <time>2013-09-01T07:34:49Z</time>
      </trkpt>
      <trkpt lat="47.15085" lon="-1.3448">
        <ele>34</ele>
        <time>2013-09-01T07:34:52Z</time>
      </trkpt>
      <trkpt lat="47.15092" lon="-1.34463">
        <ele>34</ele>
        <time>2013-09-01T07:34:55Z</time>
      </trkpt>
      <trkpt lat="47.15098" lon="-1.34448">
        <ele>34</ele>
        <time>2013-09-01T07:34:58Z</time>
      </trkpt>
      <trkpt lat="47.15107" lon="-1.34435">
        <ele>34</ele>
        <time>2013-09-01T07:35:01Z</time>
      </trkpt>
      <trkpt lat="47.15116" lon="-1.34422">
        <ele>34</ele>
        <time>2013-09-01T07:35:04Z</time>
      </trkpt>
      <trkpt lat="47.15127" lon="-1.3441">
        <ele>34</ele>
        <time>2013-09-01T07:35:07Z</time>
      </trkpt>
      <trkpt lat="47.15137" lon="-1.344">
        <ele>34</ele>
        <time>2013-09-01T07:35:10Z</time>
      </trkpt>
      <trkpt lat="47.15147" lon="-1.3439">
        <ele>34</ele>
        <time>2013-09-01T07:35:13Z</time>
      </trkpt>
      <trkpt lat="47.15158" lon="-1.34381">
        <ele>34</ele>
        <time>2013-09-01T07:35:16Z</time>
      </trkpt>
      <trkpt lat="47.1517" lon="-1.34373">
        <ele>34</ele>
        <time>2013-09-01T07:35:19Z</time>
      </trkpt>
      <trkpt lat="47.1518" lon="-1.34361">
        <ele>34</ele>
        <time>2013-09-01T07:35:22Z</time>
      </trkpt>
      <trkpt lat="47.15185" lon="-1.3435">
        <ele>34</ele>
        <time>2013-09-01T07:35:24Z</time>
      </trkpt>
      <trkpt lat="47.1519" lon="-1.34332">
        <ele>34</ele>
        <time>2013-09-01T07:35:27Z</time>
      </trkpt>
      <trkpt lat="47.15192" lon="-1.34313">
        <ele>34</ele>
        <time>2013-09-01T07:35:30Z</time>
      </trkpt>
      <trkpt lat="47.15197" lon="-1.34296">
        <ele>34</ele>
        <time>2013-09-01T07:35:33Z</time>
      </trkpt>
      <trkpt lat="47.15203" lon="-1.34279">
        <ele>34</ele>
        <time>2013-09-01T07:35:36Z</time>
      </trkpt>
      <trkpt lat="47.1521" lon="-1.34264">
        <ele>34</ele>
        <time>2013-09-01T07:35:39Z</time>
      </trkpt>
      <trkpt lat="47.15217" lon="-1.34248">
        <ele>34</ele>
        <time>2013-09-01T07:35:42Z</time>
      </trkpt>
      <trkpt lat="47.15223" lon="-1.34233">
        <ele>34</ele>
        <time>2013-09-01T07:35:45Z</time>
      </trkpt>
      <trkpt lat="47.15228" lon="-1.34216">
        <ele>34</ele>
        <time>2013-09-01T07:35:48Z</time>
      </trkpt>
      <trkpt lat="47.15234" lon="-1.34198">
        <ele>34</ele>
        <time>2013-09-01T07:35:51Z</time>
      </trkpt>
      <trkpt lat="47.15241" lon="-1.34182">
        <ele>34</ele>
        <time>2013-09-01T07:35:54Z</time>
      </trkpt>
      <trkpt lat="47.15248" lon="-1.34166">
        <ele>34</ele>
        <time>2013-09-01T07:35:57Z</time>
      </trkpt>
      <trkpt lat="47.15255" lon="-1.3415">
        <ele>34</ele>
        <time>2013-09-01T07:36:00Z</time>
      </trkpt>
      <trkpt lat="47.15261" lon="-1.34134">
        <ele>34</ele>
        <time>2013-09-01T07:36:03Z</time>
      </trkpt>
      <trkpt lat="47.15268" lon="-1.34119">
        <ele>34</ele>
        <time>2013-09-01T07:36:06Z</time>
      </trkpt>
      <trkpt lat="47.15276" lon="-1.34102">
        <ele>34</ele>
        <time>2013-09-01T07:36:09Z</time>
      </trkpt>
      <trkpt lat="47.15282" lon="-1.34085">
        <ele>34</ele>
        <time>2013-09-01T07:36:12Z</time>
      </trkpt>
      <trkpt lat="47.15288" lon="-1.34068">
        <ele>34</ele>
        <time>2013-09-01T07:36:15Z</time>
      </trkpt>
      <trkpt lat="47.15291" lon="-1.34056">
        <ele>34</ele>
        <time>2013-09-01T07:36:17Z</time>
      </trkpt>
      <trkpt lat="47.15296" lon="-1.34037">
        <ele>34</ele>
        <time>2013-09-01T07:36:20Z</time>
      </trkpt>
      <trkpt lat="47.15298" lon="-1.34017">
        <ele>34</ele>
        <time>2013-09-01T07:36:23Z</time>
      </trkpt>
      <trkpt lat="47.15301" lon="-1.34004">
        <ele>34</ele>
        <time>2013-09-01T07:36:25Z</time>
      </trkpt>
      <trkpt lat="47.15302" lon="-1.33991">
        <ele>34</ele>
        <time>2013-09-01T07:36:27Z</time>
      </trkpt>
      <trkpt lat="47.15305" lon="-1.33977">
        <ele>34</ele>
        <time>2013-09-01T07:36:29Z</time>
      </trkpt>
      <trkpt lat="47.15308" lon="-1.33959">
        <ele>34</ele>
        <time>2013-09-01T07:36:32Z</time>
      </trkpt>
      <trkpt lat="47.1531" lon="-1.33946">
        <ele>34</ele>
        <time>2013-09-01T07:36:34Z</time>
      </trkpt>
      <trkpt lat="47.15313" lon="-1.33933">
        <ele>34</ele>
        <time>2013-09-01T07:36:36Z</time>
      </trkpt>
      <trkpt lat="47.15315" lon="-1.3392">
        <ele>34</ele>
        <time>2013-09-01T07:36:38Z</time>
      </trkpt>
      <trkpt lat="47.15318" lon="-1.33907">
        <ele>34</ele>
        <time>2013-09-01T07:36:40Z</time>
      </trkpt>
      <trkpt lat="47.1532" lon="-1.33889">
        <ele>34</ele>
        <time>2013-09-01T07:36:43Z</time>
      </trkpt>
      <trkpt lat="47.15322" lon="-1.3387">
        <ele>34</ele>
        <time>2013-09-01T07:36:46Z</time>
      </trkpt>
      <trkpt lat="47.15319" lon="-1.33853">
        <ele>34</ele>
        <time>2013-09-01T07:36:49Z</time>
      </trkpt>
      <trkpt lat="47.15314" lon="-1.33842">
        <ele>34</ele>
        <time>2013-09-01T07:36:51Z</time>
      </trkpt>
      <trkpt lat="47.15302" lon="-1.33833">
        <ele>34</ele>
        <time>2013-09-01T07:36:54Z</time>
      </trkpt>
      <trkpt lat="47.15293" lon="-1.3383">
        <ele>34</ele>
        <time>2013-09-01T07:36:56Z</time>
      </trkpt>
      <trkpt lat="47.15284" lon="-1.33828">
        <ele>34</ele>
        <time>2013-09-01T07:36:58Z</time>
      </trkpt>
      <trkpt lat="47.15275" lon="-1.33825">
        <ele>34</ele>
        <time>2013-09-01T07:37:00Z</time>
      </trkpt>
      <trkpt lat="47.15265" lon="-1.33822">
        <ele>34</ele>
        <time>2013-09-01T07:37:02Z</time>
      </trkpt>
      <trkpt lat="47.15256" lon="-1.33818">
        <ele>34</ele>
        <time>2013-09-01T07:37:04Z</time>
      </trkpt>
      <trkpt lat="47.15247" lon="-1.33815">
        <ele>34</ele>
        <time>2013-09-01T07:37:06Z</time>
      </trkpt>
      <trkpt lat="47.15238" lon="-1.33811">
        <ele>34</ele>
        <time>2013-09-01T07:37:08Z</time>
      </trkpt>
      <trkpt lat="47.15229" lon="-1.33808">
        <ele>34</ele>
        <time>2013-09-01T07:37:10Z</time>
      </trkpt>
      <trkpt lat="47.15219" lon="-1.33804">
        <ele>34</ele>
        <time>2013-09-01T07:37:12Z</time>
      </trkpt>
      <trkpt lat="47.1521" lon="-1.338">
        <ele>34</ele>
        <time>2013-09-01T07:37:14Z</time>
      </trkpt>
      <trkpt lat="47.15201" lon="-1.33795">
        <ele>34</ele>
        <time>2013-09-01T07:37:16Z</time>
      </trkpt>
      <trkpt lat="47.15192" lon="-1.33791">
        <ele>34</ele>
        <time>2013-09-01T07:37:18Z</time>
      </trkpt>
      <trkpt lat="47.15183" lon="-1.33785">
        <ele>34</ele>
        <time>2013-09-01T07:37:20Z</time>
      </trkpt>
      <trkpt lat="47.15174" lon="-1.3378">
        <ele>39</ele>
        <time>2013-09-01T07:37:22Z</time>
      </trkpt>
      <trkpt lat="47.15165" lon="-1.33774">
        <ele>39</ele>
        <time>2013-09-01T07:37:24Z</time>
      </trkpt>
      <trkpt lat="47.15156" lon="-1.3377">
        <ele>39</ele>
        <time>2013-09-01T07:37:26Z</time>
      </trkpt>
      <trkpt lat="47.15147" lon="-1.33765">
        <ele>39</ele>
        <time>2013-09-01T07:37:28Z</time>
      </trkpt>
      <trkpt lat="47.15137" lon="-1.3376">
        <ele>39</ele>
        <time>2013-09-01T07:37:30Z</time>
      </trkpt>
      <trkpt lat="47.15128" lon="-1.33756">
        <ele>39</ele>
        <time>2013-09-01T07:37:32Z</time>
      </trkpt>
      <trkpt lat="47.15119" lon="-1.3375">
        <ele>39</ele>
        <time>2013-09-01T07:37:34Z</time>
      </trkpt>
      <trkpt lat="47.1511" lon="-1.33745">
        <ele>39</ele>
        <time>2013-09-01T07:37:36Z</time>
      </trkpt>
      <trkpt lat="47.15101" lon="-1.33739">
        <ele>39</ele>
        <time>2013-09-01T07:37:38Z</time>
      </trkpt>
      <trkpt lat="47.15092" lon="-1.33735">
        <ele>39</ele>
        <time>2013-09-01T07:37:40Z</time>
      </trkpt>
      <trkpt lat="47.15082" lon="-1.3373">
        <ele>39</ele>
        <time>2013-09-01T07:37:42Z</time>
      </trkpt>
      <trkpt lat="47.15073" lon="-1.33724">
        <ele>39</ele>
        <time>2013-09-01T07:37:44Z</time>
      </trkpt>
      <trkpt lat="47.15064" lon="-1.3372">
        <ele>39</ele>
        <time>2013-09-01T07:37:46Z</time>
      </trkpt>
      <trkpt lat="47.15055" lon="-1.33714">
        <ele>39</ele>
        <time>2013-09-01T07:37:48Z</time>
      </trkpt>
      <trkpt lat="47.15046" lon="-1.33709">
        <ele>39</ele>
        <time>2013-09-01T07:37:50Z</time>
      </trkpt>
      <trkpt lat="47.15037" lon="-1.33704">
        <ele>39</ele>
        <time>2013-09-01T07:37:52Z</time>
      </trkpt>
      <trkpt lat="47.15027" lon="-1.33699">
        <ele>39</ele>
        <time>2013-09-01T07:37:54Z</time>
      </trkpt>
      <trkpt lat="47.15018" lon="-1.33695">
        <ele>39</ele>
        <time>2013-09-01T07:37:56Z</time>
      </trkpt>
      <trkpt lat="47.15009" lon="-1.33691">
        <ele>39</ele>
        <time>2013-09-01T07:37:58Z</time>
      </trkpt>
      <trkpt lat="47.15" lon="-1.33686">
        <ele>39</ele>
        <time>2013-09-01T07:38:00Z</time>
      </trkpt>
      <trkpt lat="47.14991" lon="-1.33682">
        <ele>39</ele>
        <time>2013-09-01T07:38:02Z</time>
      </trkpt>
      <trkpt lat="47.14982" lon="-1.33678">
        <ele>39</ele>
        <time>2013-09-01T07:38:04Z</time>
      </trkpt>
      <trkpt lat="47.14973" lon="-1.33675">
        <ele>39</ele>
        <time>2013-09-01T07:38:06Z</time>
      </trkpt>
      <trkpt lat="47.14964" lon="-1.3367">
        <ele>39</ele>
        <time>2013-09-01T07:38:08Z</time>
      </trkpt>
      <trkpt lat="47.14956" lon="-1.33666">
        <ele>39</ele>
        <time>2013-09-01T07:38:10Z</time>
      </trkpt>
      <trkpt lat="47.14947" lon="-1.33661">
        <ele>39</ele>
        <time>2013-09-01T07:38:12Z</time>
      </trkpt>
      <trkpt lat="47.14938" lon="-1.33656">
        <ele>39</ele>
        <time>2013-09-01T07:38:14Z</time>
      </trkpt>
      <trkpt lat="47.1493" lon="-1.3365">
        <ele>39</ele>
        <time>2013-09-01T07:38:16Z</time>
      </trkpt>
      <trkpt lat="47.14918" lon="-1.33643">
        <ele>39</ele>
        <time>2013-09-01T07:38:19Z</time>
      </trkpt>
      <trkpt lat="47.14905" lon="-1.33634">
        <ele>39</ele>
        <time>2013-09-01T07:38:22Z</time>
      </trkpt>
      <trkpt lat="47.14897" lon="-1.33629">
        <ele>39</ele>
        <time>2013-09-01T07:38:24Z</time>
      </trkpt>
      <trkpt lat="47.14885" lon="-1.3362">
        <ele>39</ele>
        <time>2013-09-01T07:38:27Z</time>
      </trkpt>
      <trkpt lat="47.14875" lon="-1.33612">
        <ele>39</ele>
        <time>2013-09-01T07:38:30Z</time>
      </trkpt>
      <trkpt lat="47.14866" lon="-1.33606">
        <ele>39</ele>
        <time>2013-09-01T07:38:33Z</time>
      </trkpt>
    </trkseg>
  </trk>
</gpx>